Time;durP1;ratioP1;P1;durP2;ratioP2;P2;SDS_P1;SDS_P2;PMS_P1;PMS_P2;Temp;Humidity;BMP_temperature;BMP_pressure;BME280_temperature;BME280_humidity;BME280_pressure;Samples;Min_cycle;Max_cycle;Signal;HPM_P1;HPM_P2
2021/01/30 00:02:05;;;;;;;0.65;0.32;;;23.50;33.30;;;;;;5022788;28;20101;-59
2021/01/30 00:04:30;;;;;;;1.00;0.40;;;23.50;33.40;;;;;;5022805;28;20033;-57
2021/01/30 00:06:57;;;;;;;1.38;0.47;;;23.50;33.40;;;;;;5025310;28;20030;-58
2021/01/30 00:09:25;;;;;;;0.98;0.30;;;23.40;33.40;;;;;;5022478;28;20025;-56
2021/01/30 00:11:57;;;;;;;0.52;0.40;;;23.50;33.50;;;;;;5023172;28;20345;-56
2021/01/30 00:14:31;;;;;;;1.42;0.40;;;23.40;33.40;;;;;;5023532;28;20069;-58
2021/01/30 00:16:57;;;;;;;0.90;0.40;;;23.50;33.50;;;;;;5023720;28;20021;-54
2021/01/30 00:19:23;;;;;;;1.27;0.50;;;23.40;33.40;;;;;;5024678;28;20080;-57
2021/01/30 00:21:51;;;;;;;0.75;0.32;;;23.40;33.40;;;;;;5021850;28;20022;-58
2021/01/30 00:24:17;;;;;;;0.38;0.30;;;23.40;33.40;;;;;;5027001;28;20099;-57
2021/01/30 00:26:43;;;;;;;1.95;0.40;;;23.40;33.40;;;;;;5022031;28;20037;-60
2021/01/30 00:29:13;;;;;;;1.08;0.35;;;23.40;33.40;;;;;;5023225;28;20026;-57
2021/01/30 00:31:38;;;;;;;1.00;0.60;;;23.40;33.40;;;;;;5024310;28;20033;-54
2021/01/30 00:34:04;;;;;;;0.32;0.20;;;23.40;33.40;;;;;;5023727;28;20032;-53
2021/01/30 00:36:30;;;;;;;0.63;0.43;;;23.40;34.10;;;;;;5020410;28;20368;-58
2021/01/30 00:38:55;;;;;;;0.60;0.40;;;23.40;33.40;;;;;;5031122;28;20056;-53
2021/01/30 00:41:21;;;;;;;0.68;0.40;;;23.40;33.40;;;;;;5018243;28;20030;-55
2021/01/30 00:43:47;;;;;;;0.52;0.30;;;23.40;33.40;;;;;;5023995;28;20358;-54
2021/01/30 00:46:13;;;;;;;0.32;0.30;;;23.30;33.40;;;;;;5027736;28;20301;-52
2021/01/30 00:48:39;;;;;;;0.35;0.30;;;23.30;33.40;;;;;;5017221;28;20322;-52
2021/01/30 00:51:04;;;;;;;0.82;0.35;;;23.30;33.40;;;;;;5016946;28;20141;-54
2021/01/30 00:53:30;;;;;;;0.32;0.30;;;23.30;33.40;;;;;;5016565;28;20049;-50
2021/01/30 00:55:56;;;;;;;0.30;0.20;;;23.30;33.40;;;;;;5021816;28;20465;-58
2021/01/30 00:58:22;;;;;;;0.32;0.28;;;23.30;33.40;;;;;;5023122;28;20029;-58
2021/01/30 01:00:48;;;;;;;0.40;0.30;;;23.30;33.40;;;;;;5023734;28;20422;-57
2021/01/30 01:03:19;;;;;;;1.10;0.30;;;23.30;33.40;;;;;;5015284;28;20112;-56
2021/01/30 01:05:57;;;;;;;0.35;0.20;;;23.30;33.40;;;;;;5024658;28;20374;-51
2021/01/30 01:08:24;;;;;;;0.40;0.30;;;23.30;33.40;;;;;;5034888;28;20041;-50
2021/01/30 01:10:49;;;;;;;0.40;0.30;;;23.30;33.40;;;;;;5027029;28;20038;-51
2021/01/30 01:13:15;;;;;;;0.40;0.40;;;23.20;33.30;;;;;;5036352;28;20506;-50
2021/01/30 01:15:41;;;;;;;0.43;0.28;;;23.20;33.30;;;;;;5023061;28;20696;-49
2021/01/30 01:18:07;;;;;;;0.43;0.40;;;23.20;33.30;;;;;;5026548;28;20113;-49
2021/01/30 01:20:32;;;;;;;0.28;0.28;;;23.20;33.30;;;;;;5020676;28;20044;-57
2021/01/30 01:22:58;;;;;;;0.55;0.30;;;23.20;33.20;;;;;;5028818;28;20099;-56
2021/01/30 01:25:24;;;;;;;0.30;0.30;;;23.20;33.20;;;;;;5015874;28;20053;-56
2021/01/30 01:27:51;;;;;;;0.35;0.30;;;23.20;33.20;;;;;;5020281;28;20029;-56
2021/01/30 01:30:18;;;;;;;0.73;0.43;;;23.20;33.20;;;;;;5031630;28;20045;-57
2021/01/30 01:32:44;;;;;;;0.55;0.40;;;23.20;33.20;;;;;;5017864;28;20038;-55
2021/01/30 01:35:14;;;;;;;0.55;0.30;;;23.20;33.10;;;;;;5030150;28;20034;-57
2021/01/30 01:37:39;;;;;;;0.95;0.40;;;23.10;33.10;;;;;;5016360;28;20042;-57
2021/01/30 01:40:06;;;;;;;0.80;0.40;;;23.10;33.10;;;;;;5019438;28;20476;-58
2021/01/30 01:42:32;;;;;;;0.50;0.30;;;23.10;33.10;;;;;;5024845;28;20113;-56
2021/01/30 01:44:59;;;;;;;0.70;0.50;;;23.10;33.10;;;;;;5019565;28;20028;-57
2021/01/30 01:47:37;;;;;;;0.38;0.30;;;23.10;33.70;;;;;;5015801;28;20449;-58
2021/01/30 01:50:25;;;;;;;0.40;0.20;;;23.10;33.00;;;;;;5029101;28;20118;-57
2021/01/30 01:52:52;;;;;;;0.32;0.20;;;23.10;33.00;;;;;;5023675;28;20045;-58
2021/01/30 01:55:20;;;;;;;0.32;0.30;;;23.00;33.00;;;;;;5026669;28;20025;-58
2021/01/30 01:57:55;;;;;;;0.30;0.30;;;23.10;33.00;;;;;;5020772;28;20025;-57
2021/01/30 02:00:23;;;;;;;0.50;0.20;;;23.10;33.00;;;;;;5018253;28;20034;-56
2021/01/30 02:02:52;;;;;;;0.28;0.20;;;23.10;33.00;;;;;;5034722;28;20143;-58
2021/01/30 02:05:26;;;;;;;0.45;0.22;;;23.00;32.90;;;;;;5025614;28;20029;-55
2021/01/30 02:07:55;;;;;;;0.40;0.20;;;23.00;32.90;;;;;;5035178;28;20030;-54
2021/01/30 02:10:25;;;;;;;0.40;0.28;;;23.00;32.90;;;;;;5018903;28;20041;-59
2021/01/30 02:12:55;;;;;;;0.73;0.30;;;23.00;32.90;;;;;;5019517;28;20167;-54
2021/01/30 02:15:21;;;;;;;0.38;0.32;;;23.00;32.90;;;;;;5021565;28;20510;-56
2021/01/30 02:18:22;;;;;;;1.27;0.57;;;23.00;32.90;;;;;;5018737;28;20438;-57
2021/01/30 02:21:09;;;;;;;0.30;0.30;;;23.00;32.80;;;;;;5029646;28;20310;-56
2021/01/30 02:24:19;;;;;;;0.35;0.20;;;23.00;32.80;;;;;;5017995;28;20033;-58
2021/01/30 02:26:53;;;;;;;0.45;0.40;;;23.00;32.80;;;;;;5017521;28;20101;-59
2021/01/30 02:29:38;;;;;;;0.43;0.28;;;22.90;32.80;;;;;;5030259;28;20037;-57
2021/01/30 02:32:50;;;;;;;0.20;0.20;;;22.90;32.80;;;;;;5019354;28;20041;-59
2021/01/30 02:35:37;;;;;;;0.40;0.30;;;22.90;32.80;;;;;;4959010;28;20051;-58
2021/01/30 02:38:10;;;;;;;0.20;0.20;;;22.90;32.80;;;;;;4957693;28;20041;-58
2021/01/30 02:40:44;;;;;;;0.10;0.10;;;22.90;32.80;;;;;;5002554;28;20053;-57
2021/01/30 02:43:15;;;;;;;0.20;0.20;;;22.90;32.70;;;;;;5031668;28;20029;-56
2021/01/30 02:45:49;;;;;;;0.40;0.30;;;22.90;32.80;;;;;;5018275;28;20034;-55
2021/01/30 02:48:24;;;;;;;0.40;0.30;;;22.90;32.80;;;;;;5019874;28;20492;-56
2021/01/30 02:50:54;;;;;;;0.20;0.20;;;22.80;32.70;;;;;;5013416;28;20124;-57
2021/01/30 02:53:28;;;;;;;0.20;0.20;;;22.80;32.60;;;;;;5027867;28;20393;-58
2021/01/30 02:55:58;;;;;;;0.17;0.17;;;22.80;32.60;;;;;;5033165;28;20329;-57
2021/01/30 02:58:47;;;;;;;0.32;0.30;;;22.80;32.60;;;;;;5021049;28;20443;-57
2021/01/30 03:01:13;;;;;;;0.30;0.20;;;22.80;32.60;;;;;;5033171;28;20392;-58
2021/01/30 03:03:40;;;;;;;0.47;0.30;;;22.80;32.70;;;;;;5026865;28;20025;-59
2021/01/30 03:06:15;;;;;;;0.20;0.20;;;22.80;32.60;;;;;;5034324;28;20041;-59
2021/01/30 03:08:58;;;;;;;0.68;0.30;;;22.80;32.60;;;;;;5027460;28;20457;-56
2021/01/30 03:11:33;;;;;;;0.52;0.30;;;22.80;32.60;;;;;;5015969;28;20051;-54
2021/01/30 03:14:08;;;;;;;0.30;0.22;;;22.80;32.60;;;;;;5014425;28;20357;-58
2021/01/30 03:16:39;;;;;;;0.35;0.20;;;22.70;32.60;;;;;;5019079;28;20168;-57
2021/01/30 03:19:37;;;;;;;0.90;0.40;;;22.80;32.60;;;;;;5014357;28;20033;-55
2021/01/30 03:22:11;;;;;;;0.55;0.30;;;22.70;32.50;;;;;;5001726;28;20042;-55
2021/01/30 03:24:46;;;;;;;0.25;0.22;;;22.70;32.40;;;;;;5016753;28;20029;-59
2021/01/30 03:27:29;;;;;;;0.20;0.20;;;22.70;32.40;;;;;;5023112;28;20026;-59
2021/01/30 03:29:56;;;;;;;0.80;0.30;;;22.70;33.00;;;;;;5019580;28;20053;-56
2021/01/30 03:32:23;;;;;;;0.63;0.30;;;22.70;32.30;;;;;;5027306;28;20476;-57
2021/01/30 03:34:51;;;;;;;0.32;0.30;;;22.70;32.30;;;;;;5033678;28;20025;-58
2021/01/30 03:37:18;;;;;;;0.32;0.30;;;22.70;32.20;;;;;;5026136;28;20025;-56
2021/01/30 03:39:44;;;;;;;0.38;0.28;;;22.70;32.90;;;;;;5035842;28;20350;-58
2021/01/30 03:42:11;;;;;;;0.30;0.30;;;22.70;32.20;;;;;;5022478;28;20452;-59
2021/01/30 03:44:38;;;;;;;0.20;0.20;;;22.70;32.30;;;;;;5019678;28;20018;-58
2021/01/30 03:47:04;;;;;;;0.40;0.40;;;22.70;32.20;;;;;;5032990;28;20029;-56
2021/01/30 03:49:30;;;;;;;0.20;0.20;;;22.70;32.20;;;;;;5015730;28;20041;-59
2021/01/30 03:51:56;;;;;;;0.25;0.20;;;22.60;32.10;;;;;;5017789;28;20526;-54
2021/01/30 03:54:22;;;;;;;0.32;0.20;;;22.60;32.10;;;;;;5015959;28;20084;-58
2021/01/30 03:56:48;;;;;;;0.32;0.17;;;22.60;32.10;;;;;;5023203;28;20482;-55
2021/01/30 03:59:19;;;;;;;0.38;0.38;;;22.60;32.10;;;;;;5035431;28;20112;-55
2021/01/30 04:01:45;;;;;;;0.50;0.30;;;22.60;32.10;;;;;;5026658;28;20041;-59
2021/01/30 04:04:11;;;;;;;0.32;0.20;;;22.60;32.10;;;;;;5025743;28;20141;-56
2021/01/30 04:06:37;;;;;;;0.20;0.20;;;22.60;32.10;;;;;;5024819;28;20029;-58
2021/01/30 04:09:06;;;;;;;0.30;0.25;;;22.60;32.20;;;;;;5017344;28;20473;-55
2021/01/30 04:11:33;;;;;;;0.30;0.30;;;22.60;32.10;;;;;;5018781;28;20430;-56
2021/01/30 04:13:59;;;;;;;0.30;0.20;;;22.60;32.10;;;;;;5015802;28;20030;-54
2021/01/30 04:16:26;;;;;;;0.30;0.20;;;22.60;32.00;;;;;;5020370;28;20114;-57
2021/01/30 04:18:52;;;;;;;0.28;0.20;;;22.50;32.00;;;;;;5024183;28;20060;-59
2021/01/30 04:21:19;;;;;;;0.20;0.20;;;22.50;32.00;;;;;;5024690;28;20427;-59
2021/01/30 04:23:47;;;;;;;0.20;0.20;;;22.50;32.00;;;;;;5034510;28;20044;-59
2021/01/30 04:26:13;;;;;;;0.40;0.32;;;22.50;31.90;;;;;;5031201;28;20376;-58
2021/01/30 04:28:39;;;;;;;0.32;0.30;;;22.50;31.90;;;;;;5026153;28;20030;-58
2021/01/30 04:31:06;;;;;;;0.32;0.32;;;22.50;31.90;;;;;;5030243;28;20435;-60
2021/01/30 04:33:32;;;;;;;0.20;0.20;;;22.50;32.00;;;;;;5016189;28;20519;-56
2021/01/30 04:35:58;;;;;;;0.65;0.32;;;22.50;32.00;;;;;;5018461;28;20026;-56
2021/01/30 04:38:23;;;;;;;0.10;0.10;;;22.50;32.00;;;;;;5015921;28;20033;-55
2021/01/30 04:40:58;;;;;;;0.20;0.20;;;22.50;31.90;;;;;;5017074;28;20357;-55
2021/01/30 04:43:40;;;;;;;0.63;0.30;;;22.50;31.90;;;;;;5035846;28;20043;-56
2021/01/30 04:46:29;;;;;;;0.40;0.30;;;22.50;31.90;;;;;;5025036;28;20030;-56
2021/01/30 04:49:01;;;;;;;0.45;0.30;;;22.40;31.90;;;;;;5024279;28;20021;-51
2021/01/30 04:51:27;;;;;;;0.20;0.20;;;22.40;31.90;;;;;;5032447;28;20030;-57
2021/01/30 04:54:15;;;;;;;0.30;0.20;;;22.40;31.90;;;;;;5033354;28;20039;-59
2021/01/30 04:57:08;;;;;;;0.32;0.25;;;22.40;31.90;;;;;;5030907;28;20463;-55
2021/01/30 04:59:46;;;;;;;0.20;0.20;;;22.40;31.80;;;;;;5034539;28;20037;-57
2021/01/30 05:02:33;;;;;;;0.20;0.20;;;22.40;31.90;;;;;;5030506;28;20374;-56
2021/01/30 05:05:01;;;;;;;0.20;0.20;;;22.40;31.90;;;;;;5035417;28;20116;-59
2021/01/30 05:07:36;;;;;;;0.25;0.20;;;22.40;31.90;;;;;;5025793;28;20045;-57
2021/01/30 05:10:21;;;;;;;0.30;0.30;;;22.40;31.90;;;;;;5017916;28;20047;-61
2021/01/30 05:13:03;;;;;;;0.20;0.20;;;22.40;31.90;;;;;;5023940;28;20510;-59
2021/01/30 05:15:45;;;;;;;0.10;0.10;;;22.40;31.80;;;;;;5021656;28;20033;-56
2021/01/30 05:18:33;;;;;;;0.20;0.20;;;22.40;31.90;;;;;;5019433;28;20122;-56
2021/01/30 05:21:10;;;;;;;0.20;0.20;;;22.30;31.80;;;;;;5016083;28;20041;-58
2021/01/30 05:23:38;;;;;;;0.20;0.20;;;22.40;31.80;;;;;;5022161;28;20414;-60
2021/01/30 05:26:19;;;;;;;0.20;0.20;;;22.30;31.90;;;;;;5021450;28;20468;-58
2021/01/30 05:28:55;;;;;;;0.20;0.20;;;22.30;31.80;;;;;;5028224;28;20032;-59
2021/01/30 05:31:36;;;;;;;0.20;0.20;;;22.30;31.80;;;;;;5029595;28;20050;-56
2021/01/30 05:34:25;;;;;;;0.20;0.20;;;22.30;31.80;;;;;;5020387;28;20033;-58
2021/01/30 05:36:58;;;;;;;0.22;0.20;;;22.30;31.80;;;;;;5023536;28;20038;-57
2021/01/30 05:40:00;;;;;;;0.10;0.10;;;22.30;31.80;;;;;;5030963;28;20336;-58
2021/01/30 05:42:35;;;;;;;0.13;0.13;;;22.30;31.80;;;;;;5028798;28;20025;-52
2021/01/30 05:45:22;;;;;;;0.20;0.20;;;22.20;31.70;;;;;;5031268;28;20022;-57
2021/01/30 05:47:50;;;;;;;0.30;0.30;;;22.30;31.70;;;;;;5023240;28;20038;-56
2021/01/30 05:50:39;;;;;;;0.20;0.20;;;22.30;31.80;;;;;;5027359;28;20156;-54
2021/01/30 05:53:04;;;;;;;0.20;0.20;;;22.30;31.70;;;;;;5016320;28;20033;-57
2021/01/30 05:55:36;;;;;;;0.50;0.30;;;22.30;32.40;;;;;;5016344;28;20127;-58
2021/01/30 05:58:22;;;;;;;0.20;0.20;;;22.20;31.70;;;;;;5021486;28;20025;-57
2021/01/30 06:00:48;;;;;;;0.13;0.13;;;22.20;31.60;;;;;;5022370;28;20030;-57
2021/01/30 06:03:14;;;;;;;0.45;0.30;;;22.20;31.70;;;;;;5021749;28;20036;-58
2021/01/30 06:05:46;;;;;;;0.28;0.28;;;22.20;31.70;;;;;;5034618;28;20395;-56
2021/01/30 06:08:27;;;;;;;0.20;0.20;;;22.20;31.60;;;;;;5021404;28;20030;-57
2021/01/30 06:11:10;;;;;;;0.10;0.10;;;22.20;31.50;;;;;;5015027;28;20037;-53
2021/01/30 06:13:54;;;;;;;0.30;0.30;;;22.20;31.50;;;;;;5019698;28;20096;-57
2021/01/30 06:16:36;;;;;;;0.13;0.13;;;22.20;31.60;;;;;;5020266;28;20057;-57
2021/01/30 06:19:22;;;;;;;0.20;0.20;;;22.20;31.60;;;;;;5026238;28;20029;-59
2021/01/30 06:22:07;;;;;;;0.20;0.20;;;22.20;31.60;;;;;;5020465;28;20038;-58
2021/01/30 06:24:34;;;;;;;0.40;0.20;;;22.20;31.60;;;;;;5032964;28;20025;-59
2021/01/30 06:27:09;;;;;;;0.20;0.20;;;22.10;32.20;;;;;;5033073;28;20029;-58
2021/01/30 06:29:50;;;;;;;0.30;0.30;;;22.20;31.60;;;;;;5014850;28;20034;-56
2021/01/30 06:32:19;;;;;;;0.20;0.20;;;22.10;31.60;;;;;;5015984;28;20098;-57
2021/01/30 06:34:46;;;;;;;0.15;0.15;;;22.10;31.60;;;;;;5032902;28;20435;-55
2021/01/30 06:37:28;;;;;;;0.20;0.20;;;22.10;31.60;;;;;;5029592;28;20042;-56
2021/01/30 06:40:14;;;;;;;0.20;0.15;;;22.10;31.60;;;;;;5014452;28;20045;-57
2021/01/30 06:42:44;;;;;;;0.28;0.28;;;22.10;31.60;;;;;;5028622;28;20029;-57
2021/01/30 06:45:22;;;;;;;0.30;0.30;;;22.10;31.60;;;;;;5026662;28;20034;-57
2021/01/30 06:47:50;;;;;;;0.20;0.20;;;22.10;31.50;;;;;;5028045;28;20045;-55
2021/01/30 06:50:23;;;;;;;0.10;0.10;;;22.10;31.50;;;;;;5021924;28;20124;-56
2021/01/30 06:52:50;;;;;;;0.20;0.20;;;22.10;31.50;;;;;;5017012;28;20029;-54
2021/01/30 06:55:16;;;;;;;0.25;0.25;;;22.10;31.50;;;;;;5032463;28;20037;-55
2021/01/30 06:57:48;;;;;;;0.25;0.20;;;22.00;32.10;;;;;;5030935;28;20033;-57
2021/01/30 07:00:22;;;;;;;0.13;0.10;;;22.00;31.40;;;;;;5031280;28;20040;-55
2021/01/30 07:03:07;;;;;;;0.20;0.20;;;22.00;31.40;;;;;;5018558;28;20044;-55
2021/01/30 07:05:33;;;;;;;;;;;22.00;31.40;;;;;;5024877;28;20029;-57
2021/01/30 07:08:17;;;;;;;0.88;0.40;;;22.00;31.40;;;;;;5029541;28;19919;-59
2021/01/30 07:10:58;;;;;;;0.20;0.20;;;22.00;31.40;;;;;;5033410;28;20033;-56
2021/01/30 07:13:47;;;;;;;0.20;0.20;;;22.00;31.40;;;;;;5014555;28;20121;-57
2021/01/30 07:16:21;;;;;;;0.30;0.30;;;22.00;31.40;;;;;;5017165;28;20045;-57
2021/01/30 07:19:03;;;;;;;0.20;0.20;;;22.00;31.50;;;;;;5032345;28;20032;-55
2021/01/30 07:21:37;;;;;;;0.30;0.30;;;22.00;31.50;;;;;;5023715;28;20030;-57
2021/01/30 07:24:24;;;;;;;0.10;0.10;;;22.00;31.50;;;;;;5024084;28;20045;-57
2021/01/30 07:26:54;;;;;;;0.57;0.22;;;22.00;31.50;;;;;;5017437;28;20058;-56
2021/01/30 07:29:46;;;;;;;0.28;0.28;;;22.00;31.50;;;;;;5029325;28;20108;-55
2021/01/30 07:32:25;;;;;;;0.20;0.20;;;22.00;31.40;;;;;;5032174;28;20061;-56
2021/01/30 07:35:06;;;;;;;0.20;0.20;;;22.00;31.40;;;;;;5023339;28;20037;-56
2021/01/30 07:37:34;;;;;;;0.20;0.15;;;22.00;31.40;;;;;;5014299;28;20090;-55
2021/01/30 07:40:10;;;;;;;0.20;0.20;;;22.00;31.40;;;;;;5019066;28;20041;-58
2021/01/30 07:43:26;;;;;;;0.10;0.10;;;22.00;31.40;;;;;;5017238;28;20057;-56
2021/01/30 07:46:11;;;;;;;0.10;0.10;;;22.00;31.30;;;;;;4986645;28;20077;-55
2021/01/30 07:48:43;;;;;;;0.20;0.20;;;22.00;31.30;;;;;;5017002;28;20049;-60
2021/01/30 07:51:13;;;;;;;0.95;0.38;;;21.90;31.30;;;;;;5026478;28;20072;-56
2021/01/30 07:53:40;;;;;;;0.30;0.15;;;21.90;31.30;;;;;;5023404;28;20045;-55
2021/01/30 07:56:12;;;;;;;0.60;0.20;;;21.90;31.20;;;;;;5015219;28;20065;-57
2021/01/30 07:58:56;;;;;;;0.30;0.30;;;21.90;31.30;;;;;;5014933;28;20034;-54
2021/01/30 08:01:33;;;;;;;0.20;0.10;;;21.90;31.30;;;;;;5022259;28;20038;-57
2021/01/30 08:04:04;;;;;;;0.30;0.30;;;21.90;31.20;;;;;;5017515;28;20026;-56
2021/01/30 08:06:37;;;;;;;0.45;0.22;;;21.90;31.40;;;;;;5026739;28;20421;-56
2021/01/30 08:09:30;;;;;;;0.68;0.40;;;21.90;31.70;;;;;;5027158;28;21078;-56
2021/01/30 08:12:11;;;;;;;0.50;0.50;;;22.00;31.80;;;;;;5018404;28;20045;-58
2021/01/30 08:15:07;;;;;;;0.70;0.45;;;22.00;31.80;;;;;;5016443;28;20103;-59
2021/01/30 08:18:15;;;;;;;0.63;0.40;;;22.10;31.70;;;;;;5021885;28;20061;-59
2021/01/30 08:20:50;;;;;;;0.88;0.43;;;22.10;31.50;;;;;;5023841;28;20033;-59
2021/01/30 08:23:35;;;;;;;1.38;0.70;;;22.20;31.50;;;;;;5027586;28;20121;-56
2021/01/30 08:26:28;;;;;;;1.25;0.52;;;22.40;31.30;;;;;;5032439;28;20456;-58
2021/01/30 08:29:11;;;;;;;0.70;0.50;;;22.40;31.20;;;;;;5031865;28;20040;-53
2021/01/30 08:31:50;;;;;;;1.33;0.50;;;22.50;31.10;;;;;;5021829;28;20128;-51
2021/01/30 08:34:19;;;;;;;1.38;0.50;;;22.60;31.00;;;;;;5023823;28;20022;-59
2021/01/30 08:36:47;;;;;;;1.45;0.40;;;22.70;30.90;;;;;;5021757;28;20045;-55
2021/01/30 08:39:23;;;;;;;1.15;0.60;;;22.80;30.90;;;;;;5024871;28;20353;-55
2021/01/30 08:42:05;;;;;;;0.93;0.50;;;22.90;30.80;;;;;;5023086;28;20125;-59
2021/01/30 08:44:45;;;;;;;1.25;0.50;;;23.00;30.80;;;;;;5024504;28;20481;-55
2021/01/30 08:47:16;;;;;;;2.50;0.73;;;23.10;30.80;;;;;;5017818;28;20053;-59
2021/01/30 08:49:54;;;;;;;1.02;0.50;;;23.20;30.70;;;;;;5015630;28;20044;-59
2021/01/30 08:52:32;;;;;;;1.85;0.60;;;23.30;30.70;;;;;;5024992;28;20034;-59
2021/01/30 08:54:59;;;;;;;0.93;0.35;;;23.30;30.70;;;;;;5017877;28;20022;-56
2021/01/30 08:57:31;;;;;;;0.90;0.40;;;23.40;30.60;;;;;;5031612;28;20063;-56
2021/01/30 09:00:03;;;;;;;0.75;0.35;;;23.50;30.60;;;;;;5023033;28;20510;-57
2021/01/30 09:02:28;;;;;;;1.35;0.40;;;23.60;30.60;;;;;;5030993;28;20026;-56
2021/01/30 09:05:05;;;;;;;0.68;0.40;;;23.60;30.50;;;;;;5017612;28;20037;-56
2021/01/30 09:07:50;;;;;;;0.68;0.40;;;23.70;30.40;;;;;;5024410;28;20037;-52
2021/01/30 09:10:21;;;;;;;0.40;0.30;;;23.80;30.40;;;;;;5021842;28;20191;-57
2021/01/30 09:13:15;;;;;;;1.42;0.30;;;23.80;30.40;;;;;;5026272;28;20561;-57
2021/01/30 09:15:41;;;;;;;0.60;0.30;;;23.90;30.30;;;;;;5032460;28;20356;-57
2021/01/30 09:18:21;;;;;;;0.75;0.40;;;23.90;30.30;;;;;;5020216;28;20034;-58
2021/01/30 09:21:08;;;;;;;1.23;0.30;;;23.90;30.20;;;;;;5018753;28;20021;-59
2021/01/30 09:23:51;;;;;;;0.30;0.30;;;24.00;30.10;;;;;;5026338;28;20025;-52
2021/01/30 09:26:26;;;;;;;0.93;0.40;;;24.00;30.00;;;;;;5020440;28;20037;-55
2021/01/30 09:28:58;;;;;;;0.50;0.32;;;24.10;30.00;;;;;;5022176;28;20033;-54
2021/01/30 09:31:25;;;;;;;0.88;0.28;;;24.10;30.00;;;;;;5024242;28;20120;-57
2021/01/30 09:34:14;;;;;;;0.50;0.30;;;24.10;30.00;;;;;;5012283;28;20021;-57
2021/01/30 09:36:48;;;;;;;0.60;0.40;;;24.10;29.90;;;;;;5017741;28;20033;-59
2021/01/30 09:39:20;;;;;;;;;;;24.10;29.90;;;;;;5020020;28;20053;-55
2021/01/30 09:41:47;;;;;;;1.38;0.30;;;24.10;29.90;;;;;;5017574;28;20059;-55
2021/01/30 09:44:22;;;;;;;0.50;0.40;;;24.10;30.00;;;;;;5016621;28;20445;-57
2021/01/30 09:47:02;;;;;;;0.93;0.30;;;24.10;29.90;;;;;;5017015;28;20377;-58
2021/01/30 09:49:37;;;;;;;0.40;0.40;;;24.10;29.90;;;;;;5022421;28;20064;-56
2021/01/30 09:52:05;;;;;;;0.35;0.30;;;24.10;29.90;;;;;;5024241;28;20069;-52
2021/01/30 09:54:31;;;;;;;0.80;0.50;;;24.10;29.90;;;;;;5020331;28;20046;-58
2021/01/30 09:57:14;;;;;;;0.40;0.40;;;24.00;29.90;;;;;;5025038;28;20425;-54
2021/01/30 09:59:40;;;;;;;1.05;0.30;;;24.10;29.80;;;;;;5024310;28;20030;-55
2021/01/30 10:02:12;;;;;;;0.40;0.30;;;24.00;29.80;;;;;;5023519;28;20434;-57
2021/01/30 10:04:38;;;;;;;0.70;0.40;;;24.00;29.80;;;;;;5029681;28;20028;-54
2021/01/30 10:07:13;;;;;;;1.45;0.70;;;24.10;29.80;;;;;;5024952;28;20349;-57
2021/01/30 10:09:49;;;;;;;0.40;0.30;;;24.00;29.70;;;;;;5027070;28;20033;-55
2021/01/30 10:12:20;;;;;;;0.38;0.38;;;24.00;29.60;;;;;;5019893;28;21044;-57
2021/01/30 10:14:53;;;;;;;0.35;0.30;;;24.00;29.70;;;;;;5024678;28;20352;-53
2021/01/30 10:17:27;;;;;;;1.05;0.50;;;24.00;29.60;;;;;;5025030;28;20342;-55
2021/01/30 10:20:05;;;;;;;0.35;0.25;;;24.00;29.60;;;;;;5026567;28;20364;-46
2021/01/30 10:22:46;;;;;;;2.85;0.40;;;24.00;29.60;;;;;;5016657;28;20030;-58
2021/01/30 10:25:16;;;;;;;0.32;0.30;;;24.00;29.60;;;;;;5021808;28;20037;-55
2021/01/30 10:27:47;;;;;;;0.82;0.30;;;24.00;29.70;;;;;;5021416;28;20030;-57
2021/01/30 10:30:18;;;;;;;0.52;0.40;;;23.90;29.70;;;;;;5015556;28;20042;-61
2021/01/30 10:32:54;;;;;;;0.70;0.30;;;23.90;29.80;;;;;;5015538;28;20038;-60
2021/01/30 10:35:29;;;;;;;0.30;0.30;;;23.90;29.80;;;;;;5013846;28;20046;-58
2021/01/30 10:38:02;;;;;;;0.40;0.40;;;24.00;29.90;;;;;;5020501;28;20037;-59
2021/01/30 10:40:34;;;;;;;0.40;0.32;;;23.90;29.90;;;;;;5018691;28;20099;-59
2021/01/30 10:43:05;;;;;;;0.40;0.40;;;23.90;29.90;;;;;;5028079;28;20029;-53
2021/01/30 10:45:34;;;;;;;0.93;0.60;;;23.90;29.90;;;;;;5022627;28;20468;-57
2021/01/30 10:48:03;;;;;;;0.40;0.40;;;23.90;29.90;;;;;;5028517;28;20468;-61
2021/01/30 10:50:33;;;;;;;0.57;0.40;;;23.90;30.00;;;;;;5031614;28;20037;-52
2021/01/30 10:53:21;;;;;;;1.10;0.60;;;23.90;30.00;;;;;;5023768;28;20033;-60
2021/01/30 10:55:49;;;;;;;3.38;0.40;;;23.90;30.00;;;;;;5023791;28;20120;-58
2021/01/30 10:58:24;;;;;;;0.30;0.30;;;23.90;30.00;;;;;;5020071;28;20183;-53
2021/01/30 11:01:09;;;;;;;0.35;0.35;;;23.90;30.00;;;;;;5024109;28;20021;-54
2021/01/30 11:03:47;;;;;;;0.30;0.20;;;23.90;29.80;;;;;;5016696;28;20076;-53
2021/01/30 11:06:35;;;;;;;0.90;0.30;;;23.90;29.80;;;;;;5020304;28;20038;-54
2021/01/30 11:09:15;;;;;;;1.05;0.32;;;23.90;29.80;;;;;;5024161;28;20057;-56
2021/01/30 11:11:42;;;;;;;0.75;0.40;;;23.90;29.80;;;;;;5019367;28;20045;-55
2021/01/30 11:14:28;;;;;;;0.25;0.25;;;23.90;29.90;;;;;;5031419;28;20447;-58
2021/01/30 11:16:56;;;;;;;0.45;0.40;;;23.90;30.00;;;;;;5020371;28;20459;-55
2021/01/30 11:19:32;;;;;;;0.20;0.20;;;23.90;30.00;;;;;;5021108;28;20057;-56
2021/01/30 11:22:21;;;;;;;0.38;0.32;;;23.90;30.10;;;;;;5019325;28;20461;-54
2021/01/30 11:24:52;;;;;;;0.40;0.40;;;23.90;30.20;;;;;;5024417;28;20034;-61
2021/01/30 11:27:36;;;;;;;0.60;0.40;;;24.00;30.30;;;;;;5023544;28;20445;-56
2021/01/30 11:30:17;;;;;;;0.75;0.38;;;24.00;30.30;;;;;;5025337;28;20040;-59
2021/01/30 11:32:53;;;;;;;0.60;0.40;;;24.00;30.40;;;;;;5027052;28;20085;-49
2021/01/30 11:35:28;;;;;;;0.50;0.28;;;24.00;30.40;;;;;;5022496;28;20026;-52
2021/01/30 11:37:58;;;;;;;0.43;0.32;;;24.00;30.50;;;;;;5019129;28;20113;-55
2021/01/30 11:40:24;;;;;;;0.30;0.30;;;24.00;30.60;;;;;;5027217;28;20069;-56
2021/01/30 11:42:50;;;;;;;0.63;0.50;;;24.10;30.70;;;;;;5022903;28;20418;-50
2021/01/30 11:45:16;;;;;;;0.40;0.40;;;24.10;30.90;;;;;;5013992;28;20037;-50
2021/01/30 11:47:41;;;;;;;0.88;0.38;;;24.20;31.10;;;;;;5021696;28;20029;-53
2021/01/30 11:50:09;;;;;;;0.70;0.50;;;24.20;31.20;;;;;;5027491;28;20041;-55
2021/01/30 11:52:34;;;;;;;0.60;0.50;;;24.30;31.30;;;;;;5023455;28;20041;-54
2021/01/30 11:55:03;;;;;;;0.65;0.45;;;24.40;31.40;;;;;;5023850;28;20026;-56
2021/01/30 11:57:30;;;;;;;0.75;0.43;;;24.50;31.40;;;;;;5026899;28;20034;-57
2021/01/30 11:59:56;;;;;;;0.28;0.28;;;24.60;31.30;;;;;;5024179;28;20036;-53
2021/01/30 12:02:27;;;;;;;0.80;0.50;;;24.70;31.30;;;;;;5017595;28;20135;-55
2021/01/30 12:04:52;;;;;;;0.40;0.40;;;24.80;31.20;;;;;;5019701;28;20385;-56
2021/01/30 12:07:18;;;;;;;0.52;0.35;;;24.80;31.10;;;;;;5016853;28;20034;-49
2021/01/30 12:09:44;;;;;;;1.13;0.40;;;24.90;31.10;;;;;;5025016;28;20032;-55
2021/01/30 12:12:10;;;;;;;0.52;0.30;;;24.90;31.00;;;;;;5018437;28;20041;-53
2021/01/30 12:14:36;;;;;;;0.38;0.38;;;24.90;30.90;;;;;;5020142;28;20022;-56
2021/01/30 12:17:04;;;;;;;0.60;0.35;;;24.90;30.70;;;;;;5023635;28;20089;-58
2021/01/30 12:19:32;;;;;;;0.30;0.30;;;25.00;30.70;;;;;;5021923;28;20083;-56
2021/01/30 12:21:57;;;;;;;0.77;0.40;;;25.00;30.60;;;;;;5024147;28;20030;-54
2021/01/30 12:24:23;;;;;;;0.50;0.38;;;25.00;30.50;;;;;;5023377;28;20353;-53
2021/01/30 12:26:51;;;;;;;0.70;0.40;;;25.00;30.50;;;;;;5021190;28;20108;-53
2021/01/30 12:29:17;;;;;;;0.43;0.30;;;25.00;30.40;;;;;;5019687;28;20041;-56
2021/01/30 12:31:43;;;;;;;0.30;0.30;;;25.00;30.40;;;;;;5016686;28;20380;-53
2021/01/30 12:34:09;;;;;;;0.40;0.30;;;25.00;30.30;;;;;;5019846;28;20041;-55
2021/01/30 12:36:34;;;;;;;0.45;0.35;;;25.00;30.30;;;;;;5024515;28;20026;-55
2021/01/30 12:39:00;;;;;;;0.60;0.50;;;25.00;30.40;;;;;;5020989;28;20108;-56
2021/01/30 12:41:26;;;;;;;0.52;0.32;;;24.90;30.30;;;;;;5025265;28;20449;-50
2021/01/30 12:43:52;;;;;;;0.90;0.40;;;24.80;30.20;;;;;;5022592;28;20069;-54
2021/01/30 12:46:18;;;;;;;0.40;0.40;;;24.80;30.10;;;;;;5030268;28;20107;-55
2021/01/30 12:48:45;;;;;;;0.63;0.50;;;24.70;30.00;;;;;;5029410;28;20357;-57
2021/01/30 12:51:11;;;;;;;0.38;0.38;;;24.70;30.00;;;;;;5025664;28;20069;-55
2021/01/30 12:53:37;;;;;;;0.52;0.40;;;24.70;30.00;;;;;;5026665;28;20057;-55
2021/01/30 12:56:03;;;;;;;0.38;0.35;;;24.60;30.00;;;;;;5026317;28;20113;-53
2021/01/30 12:58:30;;;;;;;0.32;0.30;;;24.60;30.00;;;;;;5021586;28;20038;-57
2021/01/30 13:00:57;;;;;;;0.40;0.40;;;24.60;30.00;;;;;;5018612;28;20033;-59
2021/01/30 13:03:23;;;;;;;0.30;0.30;;;24.50;30.00;;;;;;5019738;28;20032;-57
2021/01/30 13:05:50;;;;;;;0.80;0.40;;;24.40;29.90;;;;;;5021577;28;20429;-56
2021/01/30 13:08:18;;;;;;;0.40;0.40;;;24.40;29.90;;;;;;5031894;28;20033;-55
2021/01/30 13:10:43;;;;;;;0.52;0.30;;;24.40;29.90;;;;;;5021063;28;20049;-56
2021/01/30 13:13:10;;;;;;;0.43;0.43;;;24.30;29.90;;;;;;5022078;28;20034;-52
2021/01/30 13:15:36;;;;;;;2.75;0.40;;;24.30;29.80;;;;;;5020795;28;20361;-53
2021/01/30 13:18:03;;;;;;;0.70;0.57;;;24.30;29.70;;;;;;5019941;28;20025;-58
2021/01/30 13:20:30;;;;;;;0.70;0.50;;;24.30;29.50;;;;;;5022517;28;20033;-53